Time;durP1;ratioP1;P1;durP2;ratioP2;P2;SDS_P1;SDS_P2;PMS_P1;PMS_P2;Temp;Humidity;BMP_temperature;BMP_pressure;BME280_temperature;BME280_humidity;BME280_pressure;Samples;Min_cycle;Max_cycle;Signal;HPM_P1;HPM_P2
2021/01/13 00:00:08;;;;;;;0.57;0.53;;;4.20;99.90;;;;;;4983405;28;20580;-90
2021/01/13 00:02:34;;;;;;;0.73;0.73;;;4.10;99.90;;;;;;5017105;28;20214;-91
2021/01/13 00:05:00;;;;;;;0.97;0.50;;;4.10;99.90;;;;;;4974142;28;20326;-92
2021/01/13 00:07:26;;;;;;;0.77;0.50;;;3.90;99.90;;;;;;4977881;28;20254;-91
2021/01/13 00:09:51;;;;;;;0.20;0.20;;;3.90;99.90;;;;;;4961799;28;20677;-91
2021/01/13 00:12:17;;;;;;;0.83;0.43;;;3.90;99.90;;;;;;4978317;28;20700;-92
2021/01/13 00:14:43;;;;;;;0.30;0.30;;;3.90;99.90;;;;;;4978750;28;20212;-91
2021/01/13 00:17:09;;;;;;;2.63;0.97;;;3.90;99.90;;;;;;4968671;28;20185;-92
2021/01/13 00:19:36;;;;;;;0.50;0.27;;;4.00;99.90;;;;;;4964333;28;22670;-91
2021/01/13 00:22:03;;;;;;;1.53;0.53;;;4.00;99.90;;;;;;4975806;28;20282;-91
2021/01/13 00:24:29;;;;;;;3.60;1.03;;;4.00;99.90;;;;;;4975493;28;20357;-91
2021/01/13 00:26:59;;;;;;;0.60;0.60;;;4.00;99.90;;;;;;4968365;28;20227;-91
2021/01/13 00:29:25;;;;;;;1.37;0.77;;;4.00;99.90;;;;;;4985328;28;20192;-92
2021/01/13 00:31:55;;;;;;;0.23;0.23;;;4.10;99.90;;;;;;4966902;28;21325;-91
2021/01/13 00:34:21;;;;;;;0.30;0.30;;;4.20;99.90;;;;;;4984674;28;20239;-92
2021/01/13 00:36:47;;;;;;;5.33;1.37;;;4.40;99.90;;;;;;4983290;28;20673;-91
2021/01/13 00:39:13;;;;;;;1.13;1.00;;;4.50;99.90;;;;;;4978854;28;20231;-90
2021/01/13 00:41:39;;;;;;;0.70;0.70;;;4.40;99.90;;;;;;4963133;28;20311;-90
2021/01/13 00:44:06;;;;;;;0.40;0.40;;;4.50;99.90;;;;;;4984870;28;20521;-91
2021/01/13 00:46:39;;;;;;;1.13;0.77;;;4.60;99.90;;;;;;4979660;28;20224;-91
2021/01/13 00:49:06;;;;;;;0.63;0.63;;;4.60;99.90;;;;;;4977294;28;20222;-91
2021/01/13 00:51:36;;;;;;;0.20;0.20;;;4.70;99.90;;;;;;4974984;28;20307;-90
2021/01/13 00:54:06;;;;;;;1.40;0.63;;;4.80;99.90;;;;;;4983164;28;20219;-90
2021/01/13 00:56:41;;;;;;;0.30;0.30;;;4.90;99.90;;;;;;4985501;28;20203;-89
2021/01/13 00:59:07;;;;;;;0.30;0.30;;;4.90;99.90;;;;;;4964927;28;20235;-91
2021/01/13 01:01:33;;;;;;;1.33;1.23;;;4.50;99.90;;;;;;4970830;28;20678;-90
2021/01/13 01:03:59;;;;;;;2.33;0.57;;;4.20;99.90;;;;;;4960989;28;20315;-90
2021/01/13 01:06:25;;;;;;;0.40;0.40;;;4.10;99.90;;;;;;4968290;28;20220;-93
2021/01/13 01:08:51;;;;;;;0.47;0.40;;;4.20;99.90;;;;;;4999641;28;20196;-93
2021/01/13 01:11:20;;;;;;;0.20;0.20;;;4.20;99.90;;;;;;4968992;28;20198;-92
2021/01/13 01:13:46;;;;;;;0.20;0.20;;;4.30;99.90;;;;;;4998981;28;20694;-91
2021/01/13 01:16:12;;;;;;;2.13;0.63;;;4.40;99.90;;;;;;5002267;28;20243;-90
2021/01/13 01:18:37;;;;;;;0.20;0.20;;;4.50;99.90;;;;;;5001939;28;20342;-89
2021/01/13 01:21:06;;;;;;;0.40;0.40;;;4.60;99.90;;;;;;5002935;28;21017;-91
2021/01/13 01:23:32;;;;;;;0.20;0.20;;;4.60;99.90;;;;;;5003261;28;20745;-90
2021/01/13 01:25:57;;;;;;;0.60;0.60;;;4.60;99.90;;;;;;4986136;28;20227;-91
2021/01/13 01:28:23;;;;;;;1.37;0.40;;;4.60;99.90;;;;;;4970443;28;20212;-90
2021/01/13 01:30:49;;;;;;;0.93;0.27;;;4.50;99.90;;;;;;4981729;28;20307;-91
2021/01/13 01:33:15;;;;;;;0.20;0.20;;;4.40;99.90;;;;;;4966598;28;20227;-91
2021/01/13 01:35:40;;;;;;;0.10;0.10;;;4.40;99.90;;;;;;4981919;28;21503;-91
2021/01/13 01:38:06;;;;;;;0.70;0.50;;;4.40;99.90;;;;;;4968218;28;20199;-89
2021/01/13 01:40:32;;;;;;;0.20;0.20;;;4.20;99.90;;;;;;4950145;28;20638;-89
2021/01/13 01:42:58;;;;;;;0.30;0.30;;;4.00;99.90;;;;;;4979703;28;20572;-88
2021/01/13 01:45:25;;;;;;;0.20;0.20;;;4.00;99.90;;;;;;4980912;28;20234;-89
2021/01/13 01:48:00;;;;;;;0.20;0.20;;;4.00;99.90;;;;;;4981716;28;20218;-90
2021/01/13 01:50:28;;;;;;;0.20;0.20;;;4.00;99.90;;;;;;5000167;28;20188;-89
2021/01/13 01:53:15;;;;;;;0.30;0.30;;;4.10;99.90;;;;;;4981787;28;20203;-90
2021/01/13 01:56:18;;;;;;;0.23;0.23;;;4.10;99.90;;;;;;4997889;28;20647;-90
2021/01/13 01:58:48;;;;;;;0.50;0.50;;;4.00;99.90;;;;;;4982383;28;20958;-89
2021/01/13 02:01:18;;;;;;;1.70;0.50;;;3.90;99.90;;;;;;4981513;28;20247;-91
2021/01/13 02:03:48;;;;;;;0.50;0.50;;;4.00;99.90;;;;;;4981756;28;20212;-90
2021/01/13 02:06:18;;;;;;;0.50;0.50;;;4.10;99.90;;;;;;4997953;28;20236;-91
2021/01/13 02:08:45;;;;;;;0.20;0.20;;;4.20;99.90;;;;;;4981823;28;20671;-90
2021/01/13 02:11:19;;;;;;;0.20;0.20;;;4.20;99.90;;;;;;4983584;28;20641;-90
2021/01/13 02:13:46;;;;;;;0.97;0.63;;;4.10;99.90;;;;;;5011624;28;20212;-90
2021/01/13 02:16:14;;;;;;;0.20;0.20;;;4.10;99.90;;;;;;4968208;28;20825;-91
2021/01/13 02:18:46;;;;;;;0.10;0.10;;;4.10;99.90;;;;;;4982027;28;20227;-90
2021/01/13 02:21:19;;;;;;;1.43;0.93;;;4.20;99.90;;;;;;4982126;28;20223;-90
2021/01/13 02:24:06;;;;;;;0.17;0.17;;;4.30;99.90;;;;;;4982281;28;20192;-91
2021/01/13 02:26:35;;;;;;;0.93;0.93;;;4.30;99.90;;;;;;4983945;28;20210;-90
2021/01/13 02:29:22;;;;;;;0.30;0.30;;;4.40;99.90;;;;;;4997896;28;20335;-91
2021/01/13 02:32:03;;;;;;;1.30;0.83;;;4.40;99.90;;;;;;4982603;28;20220;-90
2021/01/13 02:34:52;;;;;;;0.20;0.20;;;4.50;99.90;;;;;;4981795;28;21010;-91
2021/01/13 02:37:43;;;;;;;0.30;0.30;;;4.50;99.90;;;;;;4980434;28;20215;-92
2021/01/13 02:40:16;;;;;;;0.60;0.60;;;4.40;99.90;;;;;;4980983;28;20227;-91
2021/01/13 02:43:02;;;;;;;4.63;0.80;;;4.30;99.90;;;;;;4980667;28;20223;-92
2021/01/13 02:45:31;;;;;;;2.90;2.80;;;4.30;99.90;;;;;;4982837;28;20239;-90
2021/01/13 02:48:18;;;;;;;0.13;0.13;;;4.40;99.90;;;;;;4981714;28;20230;-89
2021/01/13 02:50:45;;;;;;;0.20;0.20;;;4.40;99.90;;;;;;4982481;28;20290;-89
2021/01/13 02:53:14;;;;;;;0.20;0.20;;;4.00;99.90;;;;;;4982532;28;20187;-90
2021/01/13 02:56:07;;;;;;;0.20;0.20;;;4.00;99.90;;;;;;4981842;28;20286;-89
2021/01/13 02:58:37;;;;;;;0.20;0.20;;;4.00;99.90;;;;;;4959106;28;20282;-90
2021/01/13 03:01:07;;;;;;;0.10;0.10;;;4.00;99.90;;;;;;4998147;28;20226;-89
2021/01/13 03:03:34;;;;;;;0.20;0.20;;;3.90;99.90;;;;;;4981316;28;20216;-90
2021/01/13 03:06:05;;;;;;;0.10;0.10;;;3.90;99.90;;;;;;4999680;28;20239;-90
2021/01/13 03:08:47;;;;;;;0.53;0.53;;;4.00;99.90;;;;;;4985990;28;20196;-90
2021/01/13 03:11:19;;;;;;;0.50;0.50;;;4.00;99.90;;;;;;4984005;28;20230;-90
2021/01/13 03:13:45;;;;;;;0.43;0.43;;;4.00;99.90;;;;;;4984300;28;20222;-89
2021/01/13 03:16:13;;;;;;;3.20;0.37;;;4.00;99.90;;;;;;4984709;28;20227;-90
2021/01/13 03:18:56;;;;;;;0.10;0.10;;;4.00;99.90;;;;;;4984496;28;20695;-89
2021/01/13 03:21:27;;;;;;;0.30;0.30;;;4.10;99.90;;;;;;5001476;28;21022;-91
2021/01/13 03:24:06;;;;;;;1.00;0.50;;;4.10;99.90;;;;;;5001442;28;20567;-89
2021/01/13 03:26:38;;;;;;;0.70;0.70;;;4.10;99.90;;;;;;5002010;28;20183;-89
2021/01/13 03:29:05;;;;;;;1.20;1.20;;;4.10;99.90;;;;;;5001557;28;20306;-90
2021/01/13 03:31:37;;;;;;;0.57;0.53;;;4.20;99.90;;;;;;4983890;28;20219;-89
2021/01/13 03:34:22;;;;;;;0.77;0.30;;;4.30;99.90;;;;;;4983488;28;20222;-89
2021/01/13 03:36:56;;;;;;;0.80;0.53;;;4.40;99.90;;;;;;4990355;28;20953;-89
2021/01/13 03:39:24;;;;;;;0.40;0.40;;;4.40;99.90;;;;;;4970788;28;20217;-89
2021/01/13 03:41:52;;;;;;;0.57;0.57;;;4.40;99.90;;;;;;4981429;28;20288;-90
2021/01/13 03:44:33;;;;;;;4.70;4.23;;;4.60;99.90;;;;;;4985284;28;20190;-90
2021/01/13 03:47:34;;;;;;;3.20;0.90;;;4.60;99.90;;;;;;4980695;28;20227;-89
2021/01/13 03:50:09;;;;;;;0.30;0.30;;;4.50;99.90;;;;;;5001795;28;20254;-90
2021/01/13 03:52:45;;;;;;;0.53;0.50;;;4.40;99.90;;;;;;5003040;28;20247;-88
2021/01/13 03:55:11;;;;;;;0.20;0.20;;;4.40;99.90;;;;;;4996800;28;20227;-90
2021/01/13 03:57:56;;;;;;;0.13;0.13;;;4.30;99.90;;;;;;4957906;28;20219;-89
2021/01/13 04:00:29;;;;;;;1.60;1.50;;;4.30;99.90;;;;;;4992005;28;20250;-90
2021/01/13 04:03:13;;;;;;;2.53;1.03;;;4.30;99.90;;;;;;4987644;28;23999;-88
2021/01/13 04:06:00;;;;;;;2.07;0.50;;;4.40;99.90;;;;;;4986989;28;20589;-89
2021/01/13 04:08:32;;;;;;;0.20;0.20;;;4.50;99.90;;;;;;5006501;28;20252;-91
2021/01/13 04:10:58;;;;;;;0.30;0.30;;;4.50;99.90;;;;;;4986631;28;20215;-91
2021/01/13 04:13:36;;;;;;;2.00;0.60;;;4.30;99.90;;;;;;4987582;28;20269;-91
2021/01/13 04:16:02;;;;;;;0.20;0.20;;;4.20;99.90;;;;;;5004782;28;22619;-91
2021/01/13 04:18:29;;;;;;;0.43;0.43;;;4.10;99.90;;;;;;4985967;28;20914;-91
2021/01/13 04:20:55;;;;;;;0.10;0.10;;;4.10;99.90;;;;;;4987404;28;22190;-90
2021/01/13 04:23:21;;;;;;;0.27;0.20;;;4.10;99.90;;;;;;5003955;28;20554;-91
2021/01/13 04:25:48;;;;;;;0.20;0.20;;;4.10;99.90;;;;;;4986766;28;20235;-90
2021/01/13 04:28:14;;;;;;;0.20;0.20;;;4.10;99.90;;;;;;5004380;28;20226;-90
2021/01/13 04:30:40;;;;;;;0.20;0.20;;;4.10;99.90;;;;;;5003206;28;20278;-89
2021/01/13 04:33:07;;;;;;;4.50;1.17;;;4.10;99.90;;;;;;5002633;28;20223;-91
2021/01/13 04:35:33;;;;;;;0.30;0.30;;;4.10;99.90;;;;;;4971943;28;20234;-91
2021/01/13 04:37:59;;;;;;;0.53;0.53;;;4.00;99.90;;;;;;4970154;28;20310;-90
2021/01/13 04:40:44;;;;;;;0.30;0.30;;;4.00;99.90;;;;;;4986576;28;20215;-90
2021/01/13 04:43:12;;;;;;;1.27;1.17;;;4.10;99.90;;;;;;5000787;28;20239;-90
2021/01/13 04:45:45;;;;;;;0.23;0.23;;;3.90;99.90;;;;;;4986213;28;20688;-89
2021/01/13 04:48:13;;;;;;;0.43;0.43;;;3.80;99.90;;;;;;4970573;28;20223;-90
2021/01/13 04:50:43;;;;;;;0.97;0.37;;;3.80;99.90;;;;;;4986813;28;20184;-89
2021/01/13 04:53:20;;;;;;;11.07;1.97;;;3.80;99.90;;;;;;4972363;28;20235;-89
2021/01/13 04:55:52;;;;;;;1.10;1.03;;;3.80;99.90;;;;;;5003937;28;20235;-90
2021/01/13 04:58:20;;;;;;;0.20;0.20;;;3.90;99.90;;;;;;5020224;28;20219;-90
2021/01/13 05:01:05;;;;;;;0.43;0.43;;;3.90;99.90;;;;;;4985788;28;20262;-90
2021/01/13 05:03:56;;;;;;;0.40;0.40;;;3.90;99.90;;;;;;5003818;28;20222;-90
2021/01/13 05:06:48;;;;;;;0.20;0.20;;;4.00;99.90;;;;;;4987186;28;20242;-90
2021/01/13 05:09:18;;;;;;;0.10;0.10;;;4.00;99.90;;;;;;4999255;28;20323;-92
2021/01/13 05:11:49;;;;;;;4.17;0.87;;;4.00;99.90;;;;;;4968190;28;20196;-90
2021/01/13 05:14:17;;;;;;;0.20;0.20;;;4.00;99.90;;;;;;4986375;28;20256;-91
2021/01/13 05:16:49;;;;;;;0.23;0.23;;;4.10;99.90;;;;;;4986423;28;20270;-89
2021/01/13 05:20:01;;;;;;;0.27;0.27;;;4.10;99.90;;;;;;5001322;28;20914;-91
2021/01/13 05:22:31;;;;;;;0.50;0.50;;;4.20;99.90;;;;;;5002833;28;20218;-91
2021/01/13 05:25:03;;;;;;;0.20;0.20;;;4.20;99.90;;;;;;5002372;28;20302;-90
2021/01/13 05:28:03;;;;;;;1.10;0.83;;;4.30;99.90;;;;;;4985953;28;20211;-90
2021/01/13 05:30:35;;;;;;;1.67;1.60;;;4.30;99.90;;;;;;4981308;28;20277;-90
2021/01/13 05:33:09;;;;;;;0.90;0.90;;;4.40;99.90;;;;;;4974147;28;20235;-90
2021/01/13 05:35:39;;;;;;;2.20;1.50;;;4.50;99.90;;;;;;4984373;28;20211;-90
2021/01/13 05:38:14;;;;;;;0.10;0.10;;;4.50;99.90;;;;;;5002500;28;20230;-91
2021/01/13 05:40:51;;;;;;;1.10;1.00;;;4.60;99.90;;;;;;4968633;28;20207;-90
2021/01/13 05:43:20;;;;;;;2.97;0.30;;;4.60;99.90;;;;;;4977348;28;20260;-91
2021/01/13 05:45:46;;;;;;;0.97;0.97;;;4.30;99.90;;;;;;4967610;28;20239;-91
2021/01/13 05:48:13;;;;;;;1.50;0.50;;;4.10;99.90;;;;;;4974591;28;20227;-93
2021/01/13 05:50:40;;;;;;;3.40;0.30;;;4.10;99.90;;;;;;4998900;28;20187;-92
2021/01/13 05:53:06;;;;;;;0.10;0.10;;;4.00;99.90;;;;;;4982426;28;20194;-91
2021/01/13 05:55:32;;;;;;;0.10;0.10;;;4.10;99.90;;;;;;4979146;28;20231;-94
2021/01/13 05:58:00;;;;;;;0.83;0.83;;;4.20;99.90;;;;;;4976839;28;20790;-93
2021/01/13 06:00:27;;;;;;;0.97;0.97;;;4.30;99.90;;;;;;4967755;28;20242;-93
2021/01/13 06:03:11;;;;;;;0.27;0.27;;;4.40;99.90;;;;;;4983630;28;20209;-93
2021/01/13 06:05:49;;;;;;;0.50;0.50;;;4.30;99.90;;;;;;4983193;28;20227;-93
2021/01/13 06:08:15;;;;;;;0.20;0.20;;;4.20;99.90;;;;;;5004309;28;20233;-92
2021/01/13 06:10:42;;;;;;;3.70;0.87;;;4.10;99.90;;;;;;4969440;28;20219;-93
2021/01/13 06:13:15;;;;;;;0.20;0.20;;;4.10;99.90;;;;;;5003127;28;20625;-93
2021/01/13 06:15:44;;;;;;;1.97;0.53;;;4.00;99.90;;;;;;4975040;28;20235;-92
2021/01/13 06:18:14;;;;;;;7.37;1.30;;;4.00;99.90;;;;;;4971361;28;20743;-92
2021/01/13 06:20:41;;;;;;;0.50;0.50;;;4.00;99.90;;;;;;4981615;28;20190;-93
2021/01/13 06:23:08;;;;;;;0.30;0.30;;;4.00;99.90;;;;;;4986034;28;20690;-93
2021/01/13 06:25:35;;;;;;;15.93;2.63;;;4.00;99.90;;;;;;4983863;28;20227;-93
2021/01/13 06:28:03;;;;;;;0.63;0.63;;;4.10;99.90;;;;;;4964186;28;20219;-91
2021/01/13 06:30:31;;;;;;;0.10;0.10;;;4.30;99.90;;;;;;4983973;28;20271;-94
2021/01/13 06:33:04;;;;;;;0.20;0.20;;;4.40;99.90;;;;;;5000431;28;20762;-89
2021/01/13 06:35:42;;;;;;;0.40;0.40;;;4.40;99.90;;;;;;5002614;28;20219;-89
2021/01/13 06:38:16;;;;;;;0.17;0.17;;;4.50;99.90;;;;;;4959756;28;20226;-90
2021/01/13 06:40:42;;;;;;;0.70;0.60;;;4.70;99.90;;;;;;4993375;28;20219;-90
2021/01/13 06:43:11;;;;;;;0.57;0.57;;;4.80;99.90;;;;;;4979243;28;20238;-89
2021/01/13 06:45:37;;;;;;;0.20;0.20;;;4.80;99.90;;;;;;4980723;28;20227;-92
2021/01/13 06:48:04;;;;;;;4.00;1.50;;;4.80;99.90;;;;;;4986443;28;20300;-90
2021/01/13 06:50:41;;;;;;;0.17;0.17;;;4.90;99.90;;;;;;4985794;28;20290;-89
2021/01/13 06:53:06;;;;;;;0.40;0.40;;;4.90;99.90;;;;;;4984337;28;20219;-90
2021/01/13 06:55:33;;;;;;;0.10;0.10;;;5.00;99.90;;;;;;5000170;28;20246;-90
2021/01/13 06:58:16;;;;;;;0.20;0.20;;;5.00;99.90;;;;;;4984632;28;20207;-91
2021/01/13 07:00:44;;;;;;;0.83;0.83;;;4.90;99.90;;;;;;4983712;28;20249;-91
2021/01/13 07:03:29;;;;;;;0.60;0.60;;;4.90;99.90;;;;;;4983754;28;20234;-89
2021/01/13 07:06:01;;;;;;;1.83;0.37;;;4.90;99.90;;;;;;4984745;28;20744;-89
2021/01/13 07:08:28;;;;;;;0.37;0.27;;;4.70;99.90;;;;;;5000173;28;20274;-89
2021/01/13 07:11:01;;;;;;;0.80;0.73;;;4.60;99.90;;;;;;4964487;28;20628;-90
2021/01/13 07:13:31;;;;;;;3.30;1.03;;;4.60;99.90;;;;;;4969528;28;20230;-89
2021/01/13 07:16:04;;;;;;;0.40;0.40;;;4.50;99.90;;;;;;4964329;28;20259;-90
2021/01/13 07:18:32;;;;;;;0.10;0.10;;;4.50;99.90;;;;;;4971300;28;20334;-89
2021/01/13 07:21:06;;;;;;;1.40;0.53;;;4.50;99.90;;;;;;4983609;28;20227;-85
2021/01/13 07:23:32;;;;;;;0.30;0.30;;;4.50;99.90;;;;;;4983459;28;20187;-89
2021/01/13 07:25:59;;;;;;;0.30;0.30;;;4.50;99.90;;;;;;4983363;28;20219;-88
2021/01/13 07:28:25;;;;;;;0.33;0.33;;;4.60;99.90;;;;;;4967961;28;20223;-89
2021/01/13 07:30:53;;;;;;;1.03;1.03;;;4.50;99.90;;;;;;4995425;28;20226;-89
2021/01/13 07:33:19;;;;;;;0.30;0.30;;;4.60;99.90;;;;;;4988275;28;20233;-88
2021/01/13 07:35:49;;;;;;;0.10;0.10;;;4.60;99.90;;;;;;4987457;28;20219;-89
2021/01/13 07:38:19;;;;;;;6.50;0.90;;;4.60;99.90;;;;;;4988513;28;20194;-88
2021/01/13 07:41:07;;;;;;;2.73;0.77;;;4.60;99.90;;;;;;4985618;28;20219;-89
2021/01/13 07:43:51;;;;;;;1.03;0.97;;;4.60;99.90;;;;;;4987053;28;20219;-87
2021/01/13 07:46:33;;;;;;;0.30;0.30;;;4.60;99.90;;;;;;5004273;28;20249;-87
2021/01/13 07:49:41;;;;;;;0.63;0.63;;;4.60;99.90;;;;;;4985890;28;20215;-90
2021/01/13 07:52:09;;;;;;;0.40;0.40;;;4.60;99.90;;;;;;4916184;29;20245;-87
2021/01/13 07:54:36;;;;;;;8.93;0.50;;;4.60;99.90;;;;;;4936943;28;20280;-87
2021/01/13 07:57:07;;;;;;;7.00;1.40;;;4.50;99.90;;;;;;4969481;28;20215;-87
2021/01/13 08:00:03;;;;;;;0.73;0.73;;;4.50;99.90;;;;;;5003637;28;20198;-86
2021/01/13 08:03:22;;;;;;;0.50;0.50;;;4.50;99.90;;;;;;4986290;28;20277;-87
2021/01/13 08:06:06;;;;;;;0.40;0.40;;;4.60;99.90;;;;;;4985334;28;20246;-87
2021/01/13 08:09:03;;;;;;;0.27;0.27;;;4.80;99.90;;;;;;5005478;28;20681;-88
2021/01/13 08:11:53;;;;;;;0.30;0.30;;;5.00;99.90;;;;;;4986031;28;20219;-88
2021/01/13 08:14:43;;;;;;;0.30;0.30;;;5.20;99.90;;;;;;5014245;28;20253;-87
2021/01/13 08:17:54;;;;;;;0.20;0.20;;;5.10;99.90;;;;;;4984398;28;20556;-87
2021/01/13 08:20:50;;;;;;;0.27;0.27;;;4.90;99.90;;;;;;4999923;28;20358;-86
2021/01/13 08:23:29;;;;;;;6.30;0.73;;;4.80;99.90;;;;;;4976459;28;20282;-86
2021/01/13 08:26:05;;;;;;;0.57;0.57;;;4.80;99.90;;;;;;4968872;28;20230;-84
2021/01/13 08:28:42;;;;;;;6.13;1.23;;;4.80;99.90;;;;;;4985669;28;20281;-84
2021/01/13 08:31:08;;;;;;;1.80;0.73;;;4.80;99.90;;;;;;4985372;28;20219;-84
2021/01/13 08:33:39;;;;;;;0.30;0.30;;;5.00;99.90;;;;;;5000265;28;20298;-85
2021/01/13 08:36:11;;;;;;;0.80;0.63;;;5.10;99.90;;;;;;4968752;28;20231;-84
2021/01/13 08:38:37;;;;;;;1.70;1.33;;;5.20;99.90;;;;;;5001240;28;20204;-84
2021/01/13 08:41:23;;;;;;;0.27;0.27;;;5.20;99.90;;;;;;4982348;28;20203;-86
2021/01/13 08:44:19;;;;;;;1.30;0.70;;;5.20;99.90;;;;;;5002539;28;20309;-86
2021/01/13 08:46:47;;;;;;;1.17;1.17;;;5.30;99.90;;;;;;4968566;28;20636;-88
2021/01/13 08:49:24;;;;;;;0.73;0.50;;;5.40;99.90;;;;;;5000456;28;20231;-86
2021/01/13 08:52:12;;;;;;;2.83;0.60;;;5.30;99.90;;;;;;4984774;28;20211;-86
2021/01/13 08:54:48;;;;;;;0.63;0.37;;;5.40;99.90;;;;;;4999547;28;20243;-86
2021/01/13 08:57:15;;;;;;;0.10;0.10;;;5.40;99.90;;;;;;4987436;28;20222;-87
2021/01/13 08:59:41;;;;;;;0.83;0.83;;;5.50;99.90;;;;;;4969179;28;20254;-88
2021/01/13 09:02:11;;;;;;;0.73;0.73;;;5.50;99.90;;;;;;5003545;28;20936;-87
2021/01/13 09:04:49;;;;;;;0.37;0.37;;;5.60;99.90;;;;;;4967583;28;20243;-85
2021/01/13 09:07:23;;;;;;;2.13;1.80;;;5.50;99.90;;;;;;4983118;28;20251;-86
2021/01/13 09:09:54;;;;;;;0.30;0.30;;;5.40;99.90;;;;;;4981764;28;20274;-89
2021/01/13 09:12:41;;;;;;;0.87;0.73;;;5.30;99.90;;;;;;4988491;28;20238;-89
2021/01/13 09:15:07;;;;;;;0.20;0.20;;;5.40;99.90;;;;;;4985697;28;20261;-92
2021/01/13 09:17:52;;;;;;;0.20;0.20;;;5.30;99.90;;;;;;4988637;28;20195;-92
2021/01/13 09:20:25;;;;;;;10.37;0.30;;;5.40;99.90;;;;;;4986508;28;20738;-89
2021/01/13 09:22:55;;;;;;;0.50;0.30;;;5.50;99.90;;;;;;5002128;28;20211;-89
2021/01/13 09:25:23;;;;;;;0.50;0.50;;;5.50;99.90;;;;;;5003491;28;20277;-86
2021/01/13 09:27:50;;;;;;;0.27;0.27;;;5.50;99.90;;;;;;5002731;28;20250;-86
2021/01/13 09:30:38;;;;;;;0.10;0.10;;;5.60;99.90;;;;;;4980376;28;20216;-88
2021/01/13 09:33:15;;;;;;;0.60;0.47;;;5.70;99.90;;;;;;4950807;28;20227;-88
2021/01/13 09:35:46;;;;;;;0.50;0.50;;;5.80;99.90;;;;;;4983615;28;20219;-88
2021/01/13 09:38:34;;;;;;;0.47;0.47;;;6.00;99.90;;;;;;5001119;28;20207;-88
2021/01/13 09:41:07;;;;;;;4.23;0.80;;;5.90;99.90;;;;;;4984042;28;20319;-90
2021/01/13 09:43:41;;;;;;;0.57;0.57;;;5.80;99.90;;;;;;5001658;28;20314;-89
2021/01/13 09:46:25;;;;;;;0.37;0.37;;;5.70;99.90;;;;;;4982767;28;20223;-89
2021/01/13 09:49:10;;;;;;;0.20;0.20;;;5.70;99.90;;;;;;4985423;28;20223;-86
2021/01/13 09:51:37;;;;;;;1.93;0.87;;;5.70;99.90;;;;;;5004810;28;20330;-88
2021/01/13 09:54:05;;;;;;;1.27;1.07;;;5.80;99.90;;;;;;4984158;28;20310;-87
2021/01/13 09:56:33;;;;;;;2.33;1.13;;;5.80;99.90;;;;;;5002200;28;20227;-87
2021/01/13 09:59:05;;;;;;;0.50;0.50;;;5.70;99.90;;;;;;4982401;28;20245;-87
2021/01/13 10:01:33;;;;;;;0.47;0.47;;;5.80;99.90;;;;;;5000148;28;20247;-87
2021/01/13 10:04:03;;;;;;;0.20;0.20;;;5.90;99.90;;;;;;5001392;28;20215;-89
2021/01/13 10:06:30;;;;;;;2.93;2.27;;;5.90;99.90;;;;;;4961480;28;20228;-88
2021/01/13 10:08:59;;;;;;;0.33;0.33;;;6.10;99.90;;;;;;4968208;28;20562;-91
2021/01/13 10:11:27;;;;;;;1.23;1.10;;;6.10;99.90;;;;;;4968935;28;20199;-90
2021/01/13 10:13:59;;;;;;;0.20;0.20;;;6.10;99.90;;;;;;4983520;28;20354;-87
2021/01/13 10:16:25;;;;;;;0.20;0.20;;;6.10;99.90;;;;;;4998569;28;20318;-89
2021/01/13 10:18:53;;;;;;;0.20;0.20;;;6.10;99.90;;;;;;4960982;28;20697;-92
2021/01/13 10:21:19;;;;;;;0.20;0.20;;;6.10;99.90;;;;;;4981460;28;20285;-88
2021/01/13 10:23:46;;;;;;;0.63;0.63;;;6.00;99.90;;;;;;4967866;28;20226;-88
2021/01/13 10:26:13;;;;;;;0.20;0.20;;;5.80;99.90;;;;;;4984710;28;20179;-88
2021/01/13 10:28:39;;;;;;;2.57;0.40;;;5.80;99.90;;;;;;5000302;28;20224;-88
2021/01/13 10:31:07;;;;;;;0.10;0.10;;;5.80;99.90;;;;;;4982510;28;20226;-89
2021/01/13 10:33:50;;;;;;;0.20;0.20;;;5.80;99.90;;;;;;5000050;28;20218;-88
2021/01/13 10:36:31;;;;;;;0.30;0.30;;;5.80;99.90;;;;;;5001264;28;20235;-87
2021/01/13 10:39:02;;;;;;;0.37;0.37;;;5.90;99.90;;;;;;5000163;28;20218;-91
2021/01/13 10:41:30;;;;;;;0.53;0.20;;;5.80;99.90;;;;;;4999535;28;20679;-89
2021/01/13 10:44:02;;;;;;;0.70;0.40;;;5.90;99.90;;;;;;4999224;28;20350;-91
2021/01/13 10:46:39;;;;;;;0.60;0.60;;;5.90;99.90;;;;;;4983244;28;20551;-88
2021/01/13 10:49:09;;;;;;;0.43;0.43;;;5.90;99.90;;;;;;4984409;28;21184;-88
2021/01/13 10:51:37;;;;;;;0.10;0.10;;;5.90;99.90;;;;;;4983572;28;20222;-89
2021/01/13 10:54:08;;;;;;;0.17;0.17;;;5.90;99.90;;;;;;4983939;28;20560;-89
2021/01/13 10:56:39;;;;;;;5.10;1.13;;;6.00;99.90;;;;;;4985448;28;20222;-89
2021/01/13 10:59:13;;;;;;;0.50;0.50;;;6.00;99.90;;;;;;4985399;28;20226;-90
2021/01/13 11:01:40;;;;;;;3.37;0.43;;;6.10;99.90;;;;;;5002100;28;20211;-91
2021/01/13 11:04:20;;;;;;;0.20;0.20;;;6.10;99.90;;;;;;4984706;28;20223;-90
2021/01/13 11:06:47;;;;;;;6.43;1.03;;;6.10;99.90;;;;;;4992497;28;20235;-90
2021/01/13 11:09:15;;;;;;;0.47;0.47;;;6.10;99.90;;;;;;4986057;28;20227;-90
2021/01/13 11:11:46;;;;;;;1.07;0.70;;;6.20;99.90;;;;;;4999468;28;20187;-90
2021/01/13 11:14:12;;;;;;;0.30;0.30;;;6.20;99.90;;;;;;5001503;28;20187;-91
2021/01/13 11:16:58;;;;;;;0.20;0.20;;;6.20;99.90;;;;;;4999948;28;20301;-90
2021/01/13 11:19:24;;;;;;;1.13;0.57;;;6.10;99.90;;;;;;4999792;28;20219;-90
2021/01/13 11:21:56;;;;;;;0.67;0.40;;;6.00;99.90;;;;;;4999325;28;20692;-91
2021/01/13 11:24:35;;;;;;;0.40;0.40;;;6.00;99.90;;;;;;5001266;28;20334;-88
2021/01/13 11:27:08;;;;;;;0.20;0.20;;;6.00;99.90;;;;;;5000294;28;20218;-88
2021/01/13 11:29:38;;;;;;;8.93;0.47;;;6.00;99.90;;;;;;5000262;28;20190;-89
2021/01/13 11:32:08;;;;;;;1.10;0.97;;;6.00;99.90;;;;;;4999739;28;20227;-91
2021/01/13 11:34:34;;;;;;;3.60;1.30;;;6.00;99.90;;;;;;5015755;28;20305;-91
2021/01/13 11:37:20;;;;;;;7.97;1.57;;;6.00;99.90;;;;;;5000992;28;20230;-92
2021/01/13 11:39:56;;;;;;;3.30;3.03;;;6.10;99.90;;;;;;4999355;28;20215;-91
2021/01/13 11:42:43;;;;;;;1.13;1.13;;;6.30;99.90;;;;;;4997085;28;20262;-92
2021/01/13 11:45:17;;;;;;;0.20;0.20;;;6.40;99.90;;;;;;5014328;28;20281;-90
2021/01/13 11:47:49;;;;;;;2.23;0.50;;;6.30;99.90;;;;;;4999974;28;20187;-91
2021/01/13 11:50:23;;;;;;;0.30;0.30;;;6.30;99.90;;;;;;4998776;28;20210;-90
2021/01/13 11:52:57;;;;;;;0.37;0.37;;;6.30;99.90;;;;;;5001429;28;20637;-89
2021/01/13 11:55:30;;;;;;;2.43;0.30;;;6.30;99.90;;;;;;5015572;28;20258;-86
2021/01/13 11:57:56;;;;;;;0.77;0.77;;;6.30;99.90;;;;;;5000892;28;20219;-88
2021/01/13 12:00:26;;;;;;;0.20;0.20;;;6.40;99.90;;;;;;4999210;28;20230;-91
2021/01/13 12:02:59;;;;;;;1.80;1.03;;;6.40;99.90;;;;;;5000507;28;20184;-89
2021/01/13 12:05:37;;;;;;;1.07;0.87;;;6.50;99.90;;;;;;4975355;28;20239;-87
2021/01/13 12:08:04;;;;;;;2.13;0.67;;;6.70;99.90;;;;;;4999044;28;20586;-89
2021/01/13 12:10:41;;;;;;;0.27;0.27;;;6.70;99.90;;;;;;4984565;28;20722;-92
2021/01/13 12:13:16;;;;;;;2.20;0.70;;;6.70;99.90;;;;;;4959837;28;20282;-89
2021/01/13 12:15:59;;;;;;;1.23;0.97;;;6.50;99.90;;;;;;4985037;28;20224;-90
2021/01/13 12:18:42;;;;;;;2.83;0.33;;;6.50;99.90;;;;;;5001477;28;20227;-90
2021/01/13 12:21:14;;;;;;;0.20;0.20;;;6.70;99.90;;;;;;5001069;28;20220;-90
2021/01/13 12:23:42;;;;;;;1.47;0.50;;;6.90;99.90;;;;;;4984831;28;20187;-90
2021/01/13 12:26:19;;;;;;;1.27;0.83;;;6.60;99.90;;;;;;5006146;28;20589;-92
2021/01/13 12:28:47;;;;;;;0.47;0.47;;;6.20;99.90;;;;;;4999083;28;20338;-93
2021/01/13 12:31:14;;;;;;;6.40;0.47;;;6.00;99.90;;;;;;5005462;28;20224;-88
2021/01/13 12:33:57;;;;;;;0.30;0.30;;;5.90;99.90;;;;;;4999983;28;20302;-90
2021/01/13 12:36:26;;;;;;;0.20;0.20;;;5.80;99.90;;;;;;4996124;28;20326;-90
2021/01/13 12:38:57;;;;;;;0.77;0.77;;;5.70;99.90;;;;;;4997990;28;20184;-89
2021/01/13 12:41:34;;;;;;;0.20;0.20;;;5.60;99.90;;;;;;4981850;28;20211;-89
2021/01/13 12:44:08;;;;;;;3.40;1.33;;;5.60;99.90;;;;;;4983548;28;20219;-89
2021/01/13 12:46:49;;;;;;;1.23;1.23;;;5.70;99.90;;;;;;4984034;28;20248;-87
2021/01/13 12:49:14;;;;;;;0.70;0.70;;;5.90;99.90;;;;;;4995920;28;20242;-88
2021/01/13 12:51:40;;;;;;;0.50;0.50;;;6.00;99.90;;;;;;4986003;28;20219;-92
2021/01/13 12:54:06;;;;;;;0.40;0.40;;;6.20;99.90;;;;;;5003537;28;20269;-90
2021/01/13 12:56:34;;;;;;;0.77;0.50;;;6.30;99.90;;;;;;4987230;28;20207;-85
2021/01/13 12:59:01;;;;;;;0.20;0.20;;;6.20;99.90;;;;;;4984084;28;20251;-90
2021/01/13 13:01:28;;;;;;;2.13;0.87;;;6.10;99.90;;;;;;4980526;28;20224;-90
2021/01/13 13:03:55;;;;;;;1.87;1.33;;;6.10;99.90;;;;;;4980993;28;20226;-91
2021/01/13 13:06:28;;;;;;;8.77;1.57;;;6.30;99.90;;;;;;4981580;28;20239;-90
2021/01/13 13:08:58;;;;;;;0.30;0.30;;;6.60;99.90;;;;;;4981779;28;20188;-88
2021/01/13 13:11:24;;;;;;;0.40;0.40;;;7.00;99.90;;;;;;4983818;28;20191;-89
2021/01/13 13:13:51;;;;;;;13.77;1.77;;;7.10;99.90;;;;;;4983377;28;20764;-89
2021/01/13 13:16:19;;;;;;;0.50;0.50;;;7.10;99.90;;;;;;5000364;28;20230;-89
2021/01/13 13:18:46;;;;;;;5.10;0.97;;;6.90;99.90;;;;;;4992809;28;20323;-90
2021/01/13 13:21:13;;;;;;;0.53;0.47;;;6.70;99.90;;;;;;4979483;28;20996;-89
2021/01/13 13:23:43;;;;;;;0.30;0.30;;;6.70;99.90;;;;;;4982809;28;20188;-87
2021/01/13 13:26:10;;;;;;;4.43;1.13;;;6.80;99.90;;;;;;4984177;28;20196;-88